sensor_id;sensor_type;location;lat;lon;timestamp;P1;durP1;ratioP1;P2;durP2;ratioP2
20966;SDS011;10642;50.682;18.510;2023-04-07T00:01:30;25.83;;;15.97;;
20966;SDS011;10642;50.682;18.510;2023-04-07T00:07:27;25.00;;;15.57;;
20966;SDS011;10642;50.682;18.510;2023-04-07T00:09:54;24.23;;;16.10;;
20966;SDS011;10642;50.682;18.510;2023-04-07T00:12:21;26.97;;;16.77;;
20966;SDS011;10642;50.682;18.510;2023-04-07T00:14:47;29.67;;;16.57;;
20966;SDS011;10642;50.682;18.510;2023-04-07T00:17:14;26.23;;;16.70;;
20966;SDS011;10642;50.682;18.510;2023-04-07T00:19:41;25.23;;;17.37;;
20966;SDS011;10642;50.682;18.510;2023-04-07T00:22:09;25.23;;;15.80;;
20966;SDS011;10642;50.682;18.510;2023-04-07T00:24:36;26.23;;;16.47;;
20966;SDS011;10642;50.682;18.510;2023-04-07T00:27:03;27.47;;;16.50;;
20966;SDS011;10642;50.682;18.510;2023-04-07T00:29:30;24.77;;;14.93;;
20966;SDS011;10642;50.682;18.510;2023-04-07T00:31:57;28.87;;;17.07;;
20966;SDS011;10642;50.682;18.510;2023-04-07T00:34:24;27.17;;;17.10;;
20966;SDS011;10642;50.682;18.510;2023-04-07T00:36:51;29.27;;;16.80;;
20966;SDS011;10642;50.682;18.510;2023-04-07T00:39:19;29.10;;;17.07;;
20966;SDS011;10642;50.682;18.510;2023-04-07T00:41:46;27.27;;;17.17;;
20966;SDS011;10642;50.682;18.510;2023-04-07T00:44:13;26.37;;;17.60;;
20966;SDS011;10642;50.682;18.510;2023-04-07T00:46:40;27.00;;;17.07;;
20966;SDS011;10642;50.682;18.510;2023-04-07T00:49:07;27.07;;;16.67;;
20966;SDS011;10642;50.682;18.510;2023-04-07T00:51:36;28.93;;;17.87;;
20966;SDS011;10642;50.682;18.510;2023-04-07T00:54:03;28.23;;;17.57;;
20966;SDS011;10642;50.682;18.510;2023-04-07T00:56:31;28.53;;;16.73;;
20966;SDS011;10642;50.682;18.510;2023-04-07T00:58:58;29.57;;;18.20;;
20966;SDS011;10642;50.682;18.510;2023-04-07T01:01:30;30.07;;;17.53;;
20966;SDS011;10642;50.682;18.510;2023-04-07T01:04:04;30.33;;;16.87;;
20966;SDS011;10642;50.682;18.510;2023-04-07T01:06:34;27.33;;;17.17;;
20966;SDS011;10642;50.682;18.510;2023-04-07T01:12:09;28.67;;;17.40;;
20966;SDS011;10642;50.682;18.510;2023-04-07T01:14:40;28.13;;;16.33;;
20966;SDS011;10642;50.682;18.510;2023-04-07T01:17:30;26.03;;;15.93;;
20966;SDS011;10642;50.682;18.510;2023-04-07T01:19:59;27.70;;;16.27;;
20966;SDS011;10642;50.682;18.510;2023-04-07T01:22:31;28.53;;;17.50;;
20966;SDS011;10642;50.682;18.510;2023-04-07T01:27:53;27.67;;;17.00;;
20966;SDS011;10642;50.682;18.510;2023-04-07T01:30:26;27.03;;;16.53;;
20966;SDS011;10642;50.682;18.510;2023-04-07T01:32:55;28.33;;;17.93;;
20966;SDS011;10642;50.682;18.510;2023-04-07T01:35:23;25.83;;;16.73;;
20966;SDS011;10642;50.682;18.510;2023-04-07T01:37:52;30.70;;;17.93;;
20966;SDS011;10642;50.682;18.510;2023-04-07T01:40:19;30.00;;;18.73;;
20966;SDS011;10642;50.682;18.510;2023-04-07T01:42:47;27.57;;;17.77;;
20966;SDS011;10642;50.682;18.510;2023-04-07T01:45:15;32.83;;;18.10;;
20966;SDS011;10642;50.682;18.510;2023-04-07T01:47:42;28.90;;;18.13;;
20966;SDS011;10642;50.682;18.510;2023-04-07T01:50:10;30.67;;;18.70;;
20966;SDS011;10642;50.682;18.510;2023-04-07T01:52:38;31.13;;;17.43;;
20966;SDS011;10642;50.682;18.510;2023-04-07T01:55:06;30.30;;;18.23;;
20966;SDS011;10642;50.682;18.510;2023-04-07T01:57:37;31.07;;;18.07;;
20966;SDS011;10642;50.682;18.510;2023-04-07T02:00:11;30.57;;;19.07;;
20966;SDS011;10642;50.682;18.510;2023-04-07T02:02:41;28.97;;;18.00;;
20966;SDS011;10642;50.682;18.510;2023-04-07T02:05:11;29.67;;;17.13;;
20966;SDS011;10642;50.682;18.510;2023-04-07T02:10:14;30.03;;;17.33;;
20966;SDS011;10642;50.682;18.510;2023-04-07T02:12:42;28.70;;;16.47;;
20966;SDS011;10642;50.682;18.510;2023-04-07T02:15:14;28.63;;;17.47;;
20966;SDS011;10642;50.682;18.510;2023-04-07T02:17:43;30.90;;;18.60;;
20966;SDS011;10642;50.682;18.510;2023-04-07T02:20:11;29.20;;;16.77;;
20966;SDS011;10642;50.682;18.510;2023-04-07T02:22:39;32.17;;;18.00;;
20966;SDS011;10642;50.682;18.510;2023-04-07T02:25:22;28.57;;;16.93;;
20966;SDS011;10642;50.682;18.510;2023-04-07T02:27:52;30.70;;;16.93;;
20966;SDS011;10642;50.682;18.510;2023-04-07T02:30:19;29.30;;;16.87;;
20966;SDS011;10642;50.682;18.510;2023-04-07T02:32:46;28.03;;;17.40;;
20966;SDS011;10642;50.682;18.510;2023-04-07T02:35:13;27.97;;;16.83;;
20966;SDS011;10642;50.682;18.510;2023-04-07T02:37:42;29.53;;;17.43;;
20966;SDS011;10642;50.682;18.510;2023-04-07T02:40:09;27.37;;;16.37;;
20966;SDS011;10642;50.682;18.510;2023-04-07T02:42:36;25.67;;;15.80;;
20966;SDS011;10642;50.682;18.510;2023-04-07T02:45:03;31.90;;;16.83;;
20966;SDS011;10642;50.682;18.510;2023-04-07T02:47:31;30.87;;;16.00;;
20966;SDS011;10642;50.682;18.510;2023-04-07T02:49:58;28.07;;;16.03;;
20966;SDS011;10642;50.682;18.510;2023-04-07T02:52:25;27.27;;;16.37;;
20966;SDS011;10642;50.682;18.510;2023-04-07T02:54:52;28.50;;;16.97;;
20966;SDS011;10642;50.682;18.510;2023-04-07T02:57:23;26.33;;;14.87;;
20966;SDS011;10642;50.682;18.510;2023-04-07T02:59:53;26.40;;;16.03;;
20966;SDS011;10642;50.682;18.510;2023-04-07T03:02:28;26.03;;;16.00;;
20966;SDS011;10642;50.682;18.510;2023-04-07T03:04:55;28.10;;;15.37;;
20966;SDS011;10642;50.682;18.510;2023-04-07T03:07:26;26.00;;;15.33;;
20966;SDS011;10642;50.682;18.510;2023-04-07T03:09:55;27.13;;;15.47;;
20966;SDS011;10642;50.682;18.510;2023-04-07T03:12:22;28.80;;;16.53;;
20966;SDS011;10642;50.682;18.510;2023-04-07T03:14:49;28.53;;;16.43;;
20966;SDS011;10642;50.682;18.510;2023-04-07T03:17:16;28.67;;;16.90;;
20966;SDS011;10642;50.682;18.510;2023-04-07T03:19:43;35.00;;;17.70;;
20966;SDS011;10642;50.682;18.510;2023-04-07T03:22:12;25.03;;;15.73;;
20966;SDS011;10642;50.682;18.510;2023-04-07T03:24:46;29.27;;;17.53;;
20966;SDS011;10642;50.682;18.510;2023-04-07T03:27:14;28.50;;;16.93;;
20966;SDS011;10642;50.682;18.510;2023-04-07T03:29:47;27.30;;;14.87;;
20966;SDS011;10642;50.682;18.510;2023-04-07T03:32:15;25.93;;;15.47;;
20966;SDS011;10642;50.682;18.510;2023-04-07T03:34:42;30.53;;;16.77;;
20966;SDS011;10642;50.682;18.510;2023-04-07T03:37:09;29.37;;;16.63;;
20966;SDS011;10642;50.682;18.510;2023-04-07T03:39:36;27.53;;;16.13;;
20966;SDS011;10642;50.682;18.510;2023-04-07T03:42:18;26.70;;;15.87;;
20966;SDS011;10642;50.682;18.510;2023-04-07T03:44:45;27.77;;;16.37;;
20966;SDS011;10642;50.682;18.510;2023-04-07T03:47:13;27.33;;;15.17;;
20966;SDS011;10642;50.682;18.510;2023-04-07T03:49:40;27.60;;;13.87;;
20966;SDS011;10642;50.682;18.510;2023-04-07T03:52:07;22.87;;;13.70;;
20966;SDS011;10642;50.682;18.510;2023-04-07T03:54:35;26.40;;;14.63;;
20966;SDS011;10642;50.682;18.510;2023-04-07T03:57:02;22.27;;;13.50;;
20966;SDS011;10642;50.682;18.510;2023-04-07T03:59:34;26.17;;;13.77;;
20966;SDS011;10642;50.682;18.510;2023-04-07T04:02:03;23.77;;;13.93;;
20966;SDS011;10642;50.682;18.510;2023-04-07T04:04:30;25.60;;;13.27;;
20966;SDS011;10642;50.682;18.510;2023-04-07T04:06:58;19.20;;;11.93;;
20966;SDS011;10642;50.682;18.510;2023-04-07T04:09:39;21.50;;;12.17;;
20966;SDS011;10642;50.682;18.510;2023-04-07T04:12:06;20.37;;;12.27;;
20966;SDS011;10642;50.682;18.510;2023-04-07T04:14:40;20.80;;;12.13;;
20966;SDS011;10642;50.682;18.510;2023-04-07T04:17:08;20.53;;;11.43;;
20966;SDS011;10642;50.682;18.510;2023-04-07T04:19:41;22.93;;;11.23;;
20966;SDS011;10642;50.682;18.510;2023-04-07T04:22:15;20.83;;;11.80;;
20966;SDS011;10642;50.682;18.510;2023-04-07T04:24:49;20.03;;;11.87;;
20966;SDS011;10642;50.682;18.510;2023-04-07T04:27:16;21.40;;;12.57;;
20966;SDS011;10642;50.682;18.510;2023-04-07T04:29:50;21.80;;;12.53;;
20966;SDS011;10642;50.682;18.510;2023-04-07T04:32:26;24.83;;;13.63;;
20966;SDS011;10642;50.682;18.510;2023-04-07T04:34:53;23.63;;;12.93;;
20966;SDS011;10642;50.682;18.510;2023-04-07T04:37:21;23.40;;;13.57;;
20966;SDS011;10642;50.682;18.510;2023-04-07T04:39:48;22.67;;;13.03;;
20966;SDS011;10642;50.682;18.510;2023-04-07T04:42:19;21.70;;;12.27;;
20966;SDS011;10642;50.682;18.510;2023-04-07T04:44:47;19.77;;;12.50;;
20966;SDS011;10642;50.682;18.510;2023-04-07T04:47:14;22.03;;;12.60;;
20966;SDS011;10642;50.682;18.510;2023-04-07T04:49:42;21.10;;;11.40;;
20966;SDS011;10642;50.682;18.510;2023-04-07T04:52:09;21.07;;;12.90;;
20966;SDS011;10642;50.682;18.510;2023-04-07T04:54:40;21.03;;;12.03;;
20966;SDS011;10642;50.682;18.510;2023-04-07T04:57:08;19.40;;;11.73;;
20966;SDS011;10642;50.682;18.510;2023-04-07T04:59:37;22.77;;;12.30;;
20966;SDS011;10642;50.682;18.510;2023-04-07T05:02:06;20.30;;;12.77;;
20966;SDS011;10642;50.682;18.510;2023-04-07T05:04:33;22.20;;;13.00;;
20966;SDS011;10642;50.682;18.510;2023-04-07T05:07:14;24.47;;;13.87;;
20966;SDS011;10642;50.682;18.510;2023-04-07T05:09:41;26.10;;;14.37;;
20966;SDS011;10642;50.682;18.510;2023-04-07T05:12:08;27.00;;;13.90;;
20966;SDS011;10642;50.682;18.510;2023-04-07T05:14:40;24.27;;;14.30;;
20966;SDS011;10642;50.682;18.510;2023-04-07T05:17:08;25.00;;;14.60;;
20966;SDS011;10642;50.682;18.510;2023-04-07T05:19:34;21.93;;;13.20;;
20966;SDS011;10642;50.682;18.510;2023-04-07T05:22:09;26.53;;;14.40;;
20966;SDS011;10642;50.682;18.510;2023-04-07T05:24:44;28.80;;;15.70;;
20966;SDS011;10642;50.682;18.510;2023-04-07T05:27:11;26.20;;;14.63;;
20966;SDS011;10642;50.682;18.510;2023-04-07T05:29:39;25.70;;;14.23;;
20966;SDS011;10642;50.682;18.510;2023-04-07T05:32:12;24.83;;;14.23;;
20966;SDS011;10642;50.682;18.510;2023-04-07T05:34:39;25.07;;;13.57;;
20966;SDS011;10642;50.682;18.510;2023-04-07T05:37:07;26.87;;;15.07;;
20966;SDS011;10642;50.682;18.510;2023-04-07T05:39:34;25.23;;;14.03;;
20966;SDS011;10642;50.682;18.510;2023-04-07T05:42:03;26.13;;;13.80;;
20966;SDS011;10642;50.682;18.510;2023-04-07T05:44:31;24.07;;;14.13;;
20966;SDS011;10642;50.682;18.510;2023-04-07T05:46:58;24.53;;;14.63;;
20966;SDS011;10642;50.682;18.510;2023-04-07T05:49:27;23.83;;;14.53;;
20966;SDS011;10642;50.682;18.510;2023-04-07T05:52:00;25.93;;;14.67;;
20966;SDS011;10642;50.682;18.510;2023-04-07T05:54:29;22.37;;;13.73;;
20966;SDS011;10642;50.682;18.510;2023-04-07T05:56:58;26.90;;;15.83;;
20966;SDS011;10642;50.682;18.510;2023-04-07T05:59:27;24.33;;;13.17;;
20966;SDS011;10642;50.682;18.510;2023-04-07T06:01:54;31.13;;;17.37;;
20966;SDS011;10642;50.682;18.510;2023-04-07T06:04:22;24.83;;;14.23;;
20966;SDS011;10642;50.682;18.510;2023-04-07T06:06:50;23.27;;;12.90;;
20966;SDS011;10642;50.682;18.510;2023-04-07T06:09:21;25.73;;;13.07;;
20966;SDS011;10642;50.682;18.510;2023-04-07T06:11:48;26.40;;;12.90;;
20966;SDS011;10642;50.682;18.510;2023-04-07T06:14:16;23.60;;;12.80;;
20966;SDS011;10642;50.682;18.510;2023-04-07T06:16:43;25.40;;;13.23;;
20966;SDS011;10642;50.682;18.510;2023-04-07T06:19:10;23.80;;;12.77;;
20966;SDS011;10642;50.682;18.510;2023-04-07T06:21:36;22.87;;;12.33;;
20966;SDS011;10642;50.682;18.510;2023-04-07T06:24:05;23.70;;;12.40;;
20966;SDS011;10642;50.682;18.510;2023-04-07T06:26:33;23.50;;;13.50;;
20966;SDS011;10642;50.682;18.510;2023-04-07T06:29:01;22.10;;;12.10;;
20966;SDS011;10642;50.682;18.510;2023-04-07T06:31:28;21.07;;;12.10;;
20966;SDS011;10642;50.682;18.510;2023-04-07T06:33:55;22.27;;;11.77;;
20966;SDS011;10642;50.682;18.510;2023-04-07T06:36:22;26.70;;;12.20;;
20966;SDS011;10642;50.682;18.510;2023-04-07T06:38:51;22.33;;;11.03;;
20966;SDS011;10642;50.682;18.510;2023-04-07T06:41:18;22.50;;;12.60;;
20966;SDS011;10642;50.682;18.510;2023-04-07T06:43:48;23.57;;;12.63;;
20966;SDS011;10642;50.682;18.510;2023-04-07T06:46:18;25.70;;;13.77;;
20966;SDS011;10642;50.682;18.510;2023-04-07T06:48:46;25.80;;;12.40;;
20966;SDS011;10642;50.682;18.510;2023-04-07T06:51:13;21.83;;;12.27;;
20966;SDS011;10642;50.682;18.510;2023-04-07T06:53:40;22.47;;;12.27;;
20966;SDS011;10642;50.682;18.510;2023-04-07T06:56:08;22.17;;;12.53;;
20966;SDS011;10642;50.682;18.510;2023-04-07T06:58:36;24.40;;;12.40;;
20966;SDS011;10642;50.682;18.510;2023-04-07T07:01:03;23.07;;;11.50;;
20966;SDS011;10642;50.682;18.510;2023-04-07T07:03:31;19.57;;;11.70;;
20966;SDS011;10642;50.682;18.510;2023-04-07T07:05:58;20.83;;;11.83;;
20966;SDS011;10642;50.682;18.510;2023-04-07T07:08:26;25.30;;;13.27;;
20966;SDS011;10642;50.682;18.510;2023-04-07T07:10:53;24.17;;;13.13;;
20966;SDS011;10642;50.682;18.510;2023-04-07T07:13:20;27.67;;;13.80;;
20966;SDS011;10642;50.682;18.510;2023-04-07T07:15:49;23.00;;;12.67;;
20966;SDS011;10642;50.682;18.510;2023-04-07T07:18:16;25.93;;;12.83;;
20966;SDS011;10642;50.682;18.510;2023-04-07T07:20:44;23.13;;;12.43;;
20966;SDS011;10642;50.682;18.510;2023-04-07T07:23:11;23.43;;;12.07;;
20966;SDS011;10642;50.682;18.510;2023-04-07T07:25:38;22.17;;;11.93;;
20966;SDS011;10642;50.682;18.510;2023-04-07T07:28:05;24.87;;;12.67;;
20966;SDS011;10642;50.682;18.510;2023-04-07T07:30:32;25.93;;;14.23;;
20966;SDS011;10642;50.682;18.510;2023-04-07T07:32:58;22.40;;;12.10;;
20966;SDS011;10642;50.682;18.510;2023-04-07T07:35:26;25.30;;;13.73;;
20966;SDS011;10642;50.682;18.510;2023-04-07T07:37:52;27.43;;;14.63;;
20966;SDS011;10642;50.682;18.510;2023-04-07T07:40:19;22.93;;;13.10;;
20966;SDS011;10642;50.682;18.510;2023-04-07T07:42:46;26.70;;;14.07;;
20966;SDS011;10642;50.682;18.510;2023-04-07T07:45:13;24.27;;;13.50;;
20966;SDS011;10642;50.682;18.510;2023-04-07T07:47:40;26.40;;;13.17;;
20966;SDS011;10642;50.682;18.510;2023-04-07T07:50:07;28.53;;;14.60;;
20966;SDS011;10642;50.682;18.510;2023-04-07T07:52:34;25.27;;;13.20;;
20966;SDS011;10642;50.682;18.510;2023-04-07T07:55:01;27.40;;;13.90;;
20966;SDS011;10642;50.682;18.510;2023-04-07T07:57:28;30.67;;;15.17;;
20966;SDS011;10642;50.682;18.510;2023-04-07T07:59:57;27.87;;;14.67;;
20966;SDS011;10642;50.682;18.510;2023-04-07T08:02:24;25.97;;;15.00;;
20966;SDS011;10642;50.682;18.510;2023-04-07T08:04:56;28.93;;;15.50;;
20966;SDS011;10642;50.682;18.510;2023-04-07T08:07:23;31.17;;;16.67;;
20966;SDS011;10642;50.682;18.510;2023-04-07T08:09:51;30.27;;;15.07;;
20966;SDS011;10642;50.682;18.510;2023-04-07T08:12:18;25.97;;;14.63;;
20966;SDS011;10642;50.682;18.510;2023-04-07T08:14:45;28.33;;;14.80;;
20966;SDS011;10642;50.682;18.510;2023-04-07T08:17:12;29.13;;;14.30;;
20966;SDS011;10642;50.682;18.510;2023-04-07T08:19:39;30.97;;;14.50;;
20966;SDS011;10642;50.682;18.510;2023-04-07T08:22:06;26.90;;;14.13;;
20966;SDS011;10642;50.682;18.510;2023-04-07T08:24:32;35.23;;;17.07;;
20966;SDS011;10642;50.682;18.510;2023-04-07T08:26:59;32.33;;;17.43;;
20966;SDS011;10642;50.682;18.510;2023-04-07T08:29:27;31.60;;;15.60;;
20966;SDS011;10642;50.682;18.510;2023-04-07T08:31:56;29.20;;;16.57;;
20966;SDS011;10642;50.682;18.510;2023-04-07T08:34:23;33.83;;;18.03;;
20966;SDS011;10642;50.682;18.510;2023-04-07T08:36:50;34.57;;;16.60;;
20966;SDS011;10642;50.682;18.510;2023-04-07T08:39:17;35.47;;;16.57;;
20966;SDS011;10642;50.682;18.510;2023-04-07T08:41:44;36.80;;;17.43;;
20966;SDS011;10642;50.682;18.510;2023-04-07T08:44:12;33.17;;;16.37;;
20966;SDS011;10642;50.682;18.510;2023-04-07T08:46:40;35.43;;;16.37;;
20966;SDS011;10642;50.682;18.510;2023-04-07T08:49:09;30.43;;;16.20;;
20966;SDS011;10642;50.682;18.510;2023-04-07T08:51:36;30.93;;;16.63;;
20966;SDS011;10642;50.682;18.510;2023-04-07T08:54:11;30.23;;;15.77;;
20966;SDS011;10642;50.682;18.510;2023-04-07T08:56:38;30.30;;;15.60;;
20966;SDS011;10642;50.682;18.510;2023-04-07T08:59:08;27.73;;;15.30;;
20966;SDS011;10642;50.682;18.510;2023-04-07T09:01:35;29.13;;;15.37;;
20966;SDS011;10642;50.682;18.510;2023-04-07T09:04:02;28.00;;;15.73;;
20966;SDS011;10642;50.682;18.510;2023-04-07T09:06:30;25.90;;;14.77;;
20966;SDS011;10642;50.682;18.510;2023-04-07T09:08:57;30.03;;;14.67;;
20966;SDS011;10642;50.682;18.510;2023-04-07T09:11:25;28.70;;;14.90;;
20966;SDS011;10642;50.682;18.510;2023-04-07T09:13:52;33.00;;;16.23;;
20966;SDS011;10642;50.682;18.510;2023-04-07T09:16:19;28.27;;;14.67;;
20966;SDS011;10642;50.682;18.510;2023-04-07T09:18:46;28.83;;;14.23;;
20966;SDS011;10642;50.682;18.510;2023-04-07T09:21:13;28.43;;;13.70;;
20966;SDS011;10642;50.682;18.510;2023-04-07T09:23:41;25.33;;;14.13;;
20966;SDS011;10642;50.682;18.510;2023-04-07T09:28:57;30.60;;;14.20;;
20966;SDS011;10642;50.682;18.510;2023-04-07T09:34:24;29.87;;;15.77;;
20966;SDS011;10642;50.682;18.510;2023-04-07T09:36:53;29.03;;;15.60;;
20966;SDS011;10642;50.682;18.510;2023-04-07T09:39:20;27.70;;;14.70;;
20966;SDS011;10642;50.682;18.510;2023-04-07T09:41:47;24.33;;;14.07;;
20966;SDS011;10642;50.682;18.510;2023-04-07T09:44:14;32.63;;;16.27;;
20966;SDS011;10642;50.682;18.510;2023-04-07T09:46:48;29.33;;;15.27;;
20966;SDS011;10642;50.682;18.510;2023-04-07T09:49:15;27.20;;;13.50;;
20966;SDS011;10642;50.682;18.510;2023-04-07T09:51:56;26.13;;;14.17;;
20966;SDS011;10642;50.682;18.510;2023-04-07T09:54:36;26.93;;;14.53;;
20966;SDS011;10642;50.682;18.510;2023-04-07T09:57:04;24.07;;;14.00;;
20966;SDS011;10642;50.682;18.510;2023-04-07T09:59:32;27.97;;;13.50;;
20966;SDS011;10642;50.682;18.510;2023-04-07T10:02:00;25.70;;;13.80;;
20966;SDS011;10642;50.682;18.510;2023-04-07T10:04:27;27.63;;;13.77;;
20966;SDS011;10642;50.682;18.510;2023-04-07T10:06:58;23.17;;;13.30;;
20966;SDS011;10642;50.682;18.510;2023-04-07T10:09:26;25.33;;;13.07;;
20966;SDS011;10642;50.682;18.510;2023-04-07T10:11:54;24.80;;;13.47;;
20966;SDS011;10642;50.682;18.510;2023-04-07T10:14:25;32.00;;;15.00;;
20966;SDS011;10642;50.682;18.510;2023-04-07T10:16:52;28.70;;;14.70;;
20966;SDS011;10642;50.682;18.510;2023-04-07T10:19:20;28.27;;;13.97;;
20966;SDS011;10642;50.682;18.510;2023-04-07T10:21:50;27.30;;;14.23;;
20966;SDS011;10642;50.682;18.510;2023-04-07T10:24:32;24.50;;;13.37;;
20966;SDS011;10642;50.682;18.510;2023-04-07T10:27:05;25.70;;;13.50;;
20966;SDS011;10642;50.682;18.510;2023-04-07T10:29:34;27.10;;;13.87;;
20966;SDS011;10642;50.682;18.510;2023-04-07T10:32:03;27.27;;;14.60;;
20966;SDS011;10642;50.682;18.510;2023-04-07T10:37:30;23.87;;;14.20;;
20966;SDS011;10642;50.682;18.510;2023-04-07T10:42:44;27.83;;;14.23;;
20966;SDS011;10642;50.682;18.510;2023-04-07T10:45:13;27.33;;;13.87;;
20966;SDS011;10642;50.682;18.510;2023-04-07T10:50:26;24.37;;;13.37;;
20966;SDS011;10642;50.682;18.510;2023-04-07T10:53:04;24.90;;;12.73;;
20966;SDS011;10642;50.682;18.510;2023-04-07T10:55:43;23.57;;;12.17;;
20966;SDS011;10642;50.682;18.510;2023-04-07T10:58:23;24.50;;;13.33;;
20966;SDS011;10642;50.682;18.510;2023-04-07T11:01:36;24.77;;;12.87;;
20966;SDS011;10642;50.682;18.510;2023-04-07T11:03:41;23.90;;;12.03;;
20966;SDS011;10642;50.682;18.510;2023-04-07T11:06:18;23.27;;;11.60;;
20966;SDS011;10642;50.682;18.510;2023-04-07T11:08:45;22.70;;;12.60;;
20966;SDS011;10642;50.682;18.510;2023-04-07T11:11:15;25.27;;;12.73;;
20966;SDS011;10642;50.682;18.510;2023-04-07T11:13:43;20.77;;;11.60;;
20966;SDS011;10642;50.682;18.510;2023-04-07T11:16:10;22.33;;;11.93;;
20966;SDS011;10642;50.682;18.510;2023-04-07T11:18:38;25.53;;;12.67;;
20966;SDS011;10642;50.682;18.510;2023-04-07T11:21:06;22.23;;;11.63;;
20966;SDS011;10642;50.682;18.510;2023-04-07T11:23:40;23.70;;;13.10;;
20966;SDS011;10642;50.682;18.510;2023-04-07T11:26:08;28.10;;;13.77;;
20966;SDS011;10642;50.682;18.510;2023-04-07T11:31:26;24.83;;;13.10;;
20966;SDS011;10642;50.682;18.510;2023-04-07T11:33:55;25.83;;;14.10;;
20966;SDS011;10642;50.682;18.510;2023-04-07T11:36:29;23.23;;;13.27;;
20966;SDS011;10642;50.682;18.510;2023-04-07T11:38:57;22.50;;;12.83;;
20966;SDS011;10642;50.682;18.510;2023-04-07T11:41:24;24.13;;;12.97;;
20966;SDS011;10642;50.682;18.510;2023-04-07T11:46:32;25.10;;;12.57;;
20966;SDS011;10642;50.682;18.510;2023-04-07T11:49:09;24.90;;;12.17;;
20966;SDS011;10642;50.682;18.510;2023-04-07T11:51:36;22.60;;;11.27;;
20966;SDS011;10642;50.682;18.510;2023-04-07T11:54:03;20.73;;;10.67;;
20966;SDS011;10642;50.682;18.510;2023-04-07T11:56:40;20.13;;;11.03;;
20966;SDS011;10642;50.682;18.510;2023-04-07T11:59:07;22.17;;;12.13;;
20966;SDS011;10642;50.682;18.510;2023-04-07T12:01:40;27.73;;;15.60;;
20966;SDS011;10642;50.682;18.510;2023-04-07T12:04:11;29.10;;;15.60;;
20966;SDS011;10642;50.682;18.510;2023-04-07T12:06:38;29.97;;;16.23;;
20966;SDS011;10642;50.682;18.510;2023-04-07T12:09:07;33.07;;;18.23;;
20966;SDS011;10642;50.682;18.510;2023-04-07T12:11:34;27.03;;;16.33;;
20966;SDS011;10642;50.682;18.510;2023-04-07T12:14:02;29.33;;;16.47;;
20966;SDS011;10642;50.682;18.510;2023-04-07T12:16:30;30.17;;;17.63;;
20966;SDS011;10642;50.682;18.510;2023-04-07T12:18:57;29.10;;;16.37;;
20966;SDS011;10642;50.682;18.510;2023-04-07T12:21:24;29.97;;;19.20;;
20966;SDS011;10642;50.682;18.510;2023-04-07T12:23:52;28.37;;;16.50;;
20966;SDS011;10642;50.682;18.510;2023-04-07T12:26:19;28.33;;;14.13;;
20966;SDS011;10642;50.682;18.510;2023-04-07T12:28:48;30.20;;;15.50;;
20966;SDS011;10642;50.682;18.510;2023-04-07T12:31:15;28.93;;;15.27;;
20966;SDS011;10642;50.682;18.510;2023-04-07T12:33:42;25.27;;;14.00;;
20966;SDS011;10642;50.682;18.510;2023-04-07T12:36:09;25.00;;;14.77;;
20966;SDS011;10642;50.682;18.510;2023-04-07T12:38:36;25.83;;;13.90;;
20966;SDS011;10642;50.682;18.510;2023-04-07T12:41:03;21.80;;;13.60;;
20966;SDS011;10642;50.682;18.510;2023-04-07T12:43:30;27.10;;;13.47;;
20966;SDS011;10642;50.682;18.510;2023-04-07T12:45:57;23.40;;;13.03;;
20966;SDS011;10642;50.682;18.510;2023-04-07T12:48:24;21.57;;;13.10;;
20966;SDS011;10642;50.682;18.510;2023-04-07T12:50:53;25.10;;;12.60;;
20966;SDS011;10642;50.682;18.510;2023-04-07T12:53:20;26.63;;;13.00;;
20966;SDS011;10642;50.682;18.510;2023-04-07T12:55:47;25.17;;;13.33;;
20966;SDS011;10642;50.682;18.510;2023-04-07T12:58:16;21.57;;;12.67;;
20966;SDS011;10642;50.682;18.510;2023-04-07T13:00:44;22.63;;;12.23;;
20966;SDS011;10642;50.682;18.510;2023-04-07T13:03:12;20.80;;;10.80;;
20966;SDS011;10642;50.682;18.510;2023-04-07T13:05:39;19.47;;;10.13;;
20966;SDS011;10642;50.682;18.510;2023-04-07T13:08:06;19.03;;;10.57;;
20966;SDS011;10642;50.682;18.510;2023-04-07T13:10:33;19.47;;;10.87;;
20966;SDS011;10642;50.682;18.510;2023-04-07T13:13:00;21.63;;;11.40;;
20966;SDS011;10642;50.682;18.510;2023-04-07T13:15:27;17.07;;;9.50;;
20966;SDS011;10642;50.682;18.510;2023-04-07T13:17:54;15.40;;;8.83;;
20966;SDS011;10642;50.682;18.510;2023-04-07T13:20:21;17.80;;;9.10;;
20966;SDS011;10642;50.682;18.510;2023-04-07T13:22:48;17.67;;;10.03;;
20966;SDS011;10642;50.682;18.510;2023-04-07T13:25:31;18.73;;;11.40;;
20966;SDS011;10642;50.682;18.510;2023-04-07T13:27:58;19.47;;;11.13;;
20966;SDS011;10642;50.682;18.510;2023-04-07T13:30:26;18.27;;;10.00;;
20966;SDS011;10642;50.682;18.510;2023-04-07T13:32:53;16.93;;;9.60;;
20966;SDS011;10642;50.682;18.510;2023-04-07T13:35:20;19.60;;;10.00;;
20966;SDS011;10642;50.682;18.510;2023-04-07T13:37:47;23.80;;;10.73;;
20966;SDS011;10642;50.682;18.510;2023-04-07T13:40:14;21.40;;;11.20;;
20966;SDS011;10642;50.682;18.510;2023-04-07T13:42:41;21.47;;;12.17;;
20966;SDS011;10642;50.682;18.510;2023-04-07T13:45:08;25.43;;;13.13;;
20966;SDS011;10642;50.682;18.510;2023-04-07T13:47:35;19.20;;;10.87;;
20966;SDS011;10642;50.682;18.510;2023-04-07T13:50:02;22.80;;;11.43;;
20966;SDS011;10642;50.682;18.510;2023-04-07T13:52:29;17.40;;;10.83;;
20966;SDS011;10642;50.682;18.510;2023-04-07T13:54:58;37.10;;;14.47;;
20966;SDS011;10642;50.682;18.510;2023-04-07T13:57:25;21.53;;;10.23;;
20966;SDS011;10642;50.682;18.510;2023-04-07T13:59:52;17.63;;;10.07;;
20966;SDS011;10642;50.682;18.510;2023-04-07T14:02:19;16.90;;;8.07;;
20966;SDS011;10642;50.682;18.510;2023-04-07T14:04:46;14.90;;;7.93;;
20966;SDS011;10642;50.682;18.510;2023-04-07T14:07:13;27.00;;;14.63;;
20966;SDS011;10642;50.682;18.510;2023-04-07T14:09:40;16.40;;;8.87;;
20966;SDS011;10642;50.682;18.510;2023-04-07T14:12:08;27.63;;;15.57;;
20966;SDS011;10642;50.682;18.510;2023-04-07T14:14:35;11.07;;;6.37;;
20966;SDS011;10642;50.682;18.510;2023-04-07T14:17:03;18.13;;;9.73;;
20966;SDS011;10642;50.682;18.510;2023-04-07T14:19:30;14.73;;;8.87;;
20966;SDS011;10642;50.682;18.510;2023-04-07T14:21:59;12.27;;;6.00;;
20966;SDS011;10642;50.682;18.510;2023-04-07T14:24:26;11.80;;;7.23;;
20966;SDS011;10642;50.682;18.510;2023-04-07T14:26:53;12.17;;;7.33;;
20966;SDS011;10642;50.682;18.510;2023-04-07T14:29:20;11.23;;;7.10;;
20966;SDS011;10642;50.682;18.510;2023-04-07T14:31:48;14.20;;;7.43;;
20966;SDS011;10642;50.682;18.510;2023-04-07T14:34:14;11.60;;;6.60;;
20966;SDS011;10642;50.682;18.510;2023-04-07T14:36:45;13.10;;;7.50;;
20966;SDS011;10642;50.682;18.510;2023-04-07T14:39:18;17.00;;;9.40;;
20966;SDS011;10642;50.682;18.510;2023-04-07T14:41:47;39.73;;;18.97;;
20966;SDS011;10642;50.682;18.510;2023-04-07T14:44:14;42.67;;;11.30;;
20966;SDS011;10642;50.682;18.510;2023-04-07T14:46:41;21.10;;;10.40;;
20966;SDS011;10642;50.682;18.510;2023-04-07T14:49:08;21.27;;;13.97;;